Bo Liceo, Puerto Rico
Current Conditions -  °F | °C
As of 3:50 PM on Monday 24 Nov 2014 (Local Time) from TJBQ Reporting Station
Broken Clouds Broken Clouds  
Wind Chill: 82°   Ceiling: 7000
Heat Index: 87°   Visibility: 10mi
Dew Point: 72°   Wind: 23mph
Humidity: 70%   Direction: 100°E
Pressure: 29.98"   Gusts: 33mph
Location:  18.2038°N, 67.1453°W
Report Text: TJBQ 241950Z 10020G29KT 10SM SCT022 SCT028 BKN070 28/22 A2998 RMK RWY08 ATIS J
Loading
Personal Weather Stations






























Interactive Weather Map New forecast layout! Learn more

10-Day Weather Forecast

Advertisements
Track Severe Weather on mobile